Time;durP1;ratioP1;P1;durP2;ratioP2;P2;SDS_P1;SDS_P2;PMS_P1;PMS_P2;Temp;Humidity;BMP_temperature;BMP_pressure;BME280_temperature;BME280_humidity;BME280_pressure;Samples;Min_cycle;Max_cycle;Signal;HPM_P1;HPM_P2
2021/07/11 00:00:36;;;;;;;15.03;7.72;;;24.30;66.10;;;;;;1948673;73;21027;-52
2021/07/11 00:03:05;;;;;;;10.15;8.50;;;24.20;66.10;;;;;;1945114;73;21059;-49
2021/07/11 00:05:35;;;;;;;13.40;8.63;;;24.20;66.30;;;;;;1935738;74;20996;-49
2021/07/11 00:08:05;;;;;;;14.33;8.33;;;24.10;66.50;;;;;;1935537;74;21093;-51
2021/07/11 00:10:34;;;;;;;13.32;8.18;;;24.10;66.90;;;;;;1935662;74;21023;-52
2021/07/11 00:13:04;;;;;;;14.63;8.73;;;24.10;66.90;;;;;;1935581;74;21004;-52
2021/07/11 00:15:33;;;;;;;12.07;8.60;;;24.10;66.70;;;;;;1935556;74;21132;-51
2021/07/11 00:18:03;;;;;;;15.00;8.60;;;24.00;67.00;;;;;;1935541;74;21055;-51
2021/07/11 00:20:32;;;;;;;10.40;8.75;;;24.00;67.10;;;;;;1935491;74;21081;-51
2021/07/11 00:23:01;;;;;;;11.45;8.85;;;24.00;67.20;;;;;;1935519;74;21023;-52
2021/07/11 00:25:30;;;;;;;13.95;8.83;;;24.00;67.10;;;;;;1935595;74;21492;-49
2021/07/11 00:27:59;;;;;;;15.38;8.35;;;24.00;67.20;;;;;;1935692;74;21030;-49
2021/07/11 00:30:28;;;;;;;11.12;8.90;;;24.00;67.30;;;;;;1935511;74;21027;-49
2021/07/11 00:32:58;;;;;;;10.53;8.48;;;24.00;67.30;;;;;;1935612;74;21414;-53
2021/07/11 00:35:27;;;;;;;13.22;8.55;;;23.90;67.20;;;;;;1935739;74;21043;-51
2021/07/11 00:37:57;;;;;;;13.90;9.50;;;23.90;67.20;;;;;;1935591;74;21023;-48
2021/07/11 00:40:27;;;;;;;13.48;8.28;;;23.90;67.50;;;;;;1935516;74;21547;-50
2021/07/11 00:42:56;;;;;;;14.07;8.88;;;23.90;67.80;;;;;;1935509;74;21000;-52
2021/07/11 00:45:26;;;;;;;14.83;8.85;;;23.90;67.80;;;;;;1935625;74;21081;-49
2021/07/11 00:47:56;;;;;;;11.75;9.00;;;23.90;67.90;;;;;;1935574;74;21027;-50
2021/07/11 00:50:25;;;;;;;12.78;9.93;;;23.90;67.90;;;;;;1935562;74;21015;-53
2021/07/11 00:52:56;;;;;;;20.40;10.00;;;23.90;67.80;;;;;;1934635;74;21124;-50
2021/07/11 00:55:27;;;;;;;15.95;8.70;;;23.80;67.50;;;;;;1935598;74;21092;-49
2021/07/11 00:57:56;;;;;;;16.32;8.65;;;23.70;67.50;;;;;;1935603;74;21030;-51
2021/07/11 01:00:27;;;;;;;9.83;8.23;;;23.70;68.00;;;;;;1934496;74;21029;-51
2021/07/11 01:03:13;;;;;;;15.00;7.77;;;23.60;68.20;;;;;;1935578;74;21050;-50
2021/07/11 01:05:44;;;;;;;11.70;8.00;;;23.60;68.20;;;;;;1946914;74;21135;-51
2021/07/11 01:08:17;;;;;;;12.98;9.05;;;23.60;68.10;;;;;;1948131;73;21026;-50
2021/07/11 01:10:53;;;;;;;13.05;7.97;;;23.70;67.80;;;;;;1947805;74;21026;-49
2021/07/11 01:13:24;;;;;;;14.28;8.30;;;23.70;67.80;;;;;;1948248;74;21550;-50
2021/07/11 01:15:57;;;;;;;11.22;7.95;;;23.70;67.80;;;;;;1948050;73;21046;-51
2021/07/11 01:18:28;;;;;;;15.30;8.75;;;23.70;67.90;;;;;;1948423;74;21100;-52
2021/07/11 01:21:00;;;;;;;12.65;7.85;;;23.70;67.90;;;;;;1948265;73;21089;-50
2021/07/11 01:23:53;;;;;;;13.17;8.10;;;23.70;68.30;;;;;;1948243;73;21042;-51
2021/07/11 01:26:23;;;;;;;13.45;8.55;;;23.70;68.20;;;;;;1948401;74;21081;-51
2021/07/11 01:28:53;;;;;;;13.32;8.08;;;23.70;68.00;;;;;;1948365;74;21014;-49
2021/07/11 01:31:25;;;;;;;11.40;8.03;;;23.70;67.90;;;;;;1948446;74;21074;-52
2021/07/11 01:33:56;;;;;;;11.20;8.43;;;23.70;68.00;;;;;;1948602;74;21042;-50
2021/07/11 01:36:27;;;;;;;13.20;7.90;;;23.70;68.20;;;;;;1948619;73;21015;-52
2021/07/11 01:38:57;;;;;;;10.15;7.87;;;23.70;68.10;;;;;;1948543;74;21039;-52
2021/07/11 01:41:36;;;;;;;15.50;8.93;;;23.70;68.20;;;;;;1947817;74;21131;-50
2021/07/11 01:44:07;;;;;;;16.48;8.48;;;23.70;68.00;;;;;;1948522;74;21022;-51
2021/07/11 01:46:38;;;;;;;12.20;8.20;;;23.70;68.00;;;;;;1948467;74;21045;-50
2021/07/11 01:49:08;;;;;;;9.53;8.05;;;23.70;68.20;;;;;;1948669;73;21012;-50
2021/07/11 01:51:38;;;;;;;12.10;8.20;;;23.60;68.50;;;;;;1948532;74;21018;-49
2021/07/11 01:54:08;;;;;;;19.40;8.55;;;23.60;68.70;;;;;;1948409;74;21035;-50
2021/07/11 01:56:40;;;;;;;17.02;8.83;;;23.60;68.80;;;;;;1948389;73;21039;-50
2021/07/11 01:59:11;;;;;;;11.57;7.90;;;23.60;68.60;;;;;;1948204;73;21112;-51
2021/07/11 02:01:42;;;;;;;14.25;8.18;;;23.60;68.40;;;;;;1946084;74;21049;-49
2021/07/11 02:04:12;;;;;;;11.08;8.25;;;23.60;68.30;;;;;;1947215;73;21133;-51
2021/07/11 02:06:42;;;;;;;14.85;8.23;;;23.60;68.30;;;;;;1943108;74;21027;-52
2021/07/11 02:09:16;;;;;;;16.80;8.93;;;23.60;68.10;;;;;;1942580;74;21072;-53
2021/07/11 02:11:46;;;;;;;20.62;9.40;;;23.60;67.90;;;;;;1943173;74;21206;-52
2021/07/11 02:14:25;;;;;;;11.85;8.98;;;23.60;67.70;;;;;;1943156;74;21050;-48
2021/07/11 02:17:13;;;;;;;16.90;8.28;;;23.50;67.90;;;;;;1943090;74;21469;-49
2021/07/11 02:20:02;;;;;;;14.63;8.60;;;23.50;68.20;;;;;;1940568;74;21071;-51
2021/07/11 02:22:33;;;;;;;15.95;8.78;;;23.60;68.60;;;;;;1942275;74;21127;-49
2021/07/11 02:25:05;;;;;;;15.43;8.43;;;23.60;67.80;;;;;;1943126;74;21022;-52
2021/07/11 02:27:35;;;;;;;14.90;8.50;;;23.60;68.20;;;;;;1909562;74;21084;-50
2021/07/11 02:30:11;;;;;;;13.05;9.10;;;23.60;68.60;;;;;;1943103;74;21031;-49
2021/07/11 02:32:43;;;;;;;14.38;8.00;;;23.60;68.50;;;;;;1942924;73;21026;-52
2021/07/11 02:35:09;;;;;;;16.42;8.58;;;23.70;68.80;;;;;;1942512;74;21422;-51
2021/07/11 02:37:43;;;;;;;16.25;9.65;;;23.70;68.50;;;;;;1909049;74;21465;-51
2021/07/11 02:40:15;;;;;;;14.95;8.28;;;23.80;68.00;;;;;;1941948;74;21071;-51
2021/07/11 02:42:45;;;;;;;12.93;8.88;;;23.80;67.80;;;;;;1943041;74;21152;-51
2021/07/11 02:45:15;;;;;;;14.05;9.05;;;23.80;68.00;;;;;;1942898;73;21133;-52
2021/07/11 02:47:48;;;;;;;21.95;10.00;;;23.80;68.10;;;;;;1942863;74;21180;-52
2021/07/11 02:50:19;;;;;;;12.30;8.45;;;23.90;68.00;;;;;;1942985;73;21104;-51
2021/07/11 02:52:50;;;;;;;15.80;10.30;;;23.90;67.90;;;;;;1942795;74;21072;-51
2021/07/11 02:55:28;;;;;;;13.30;9.40;;;24.00;67.80;;;;;;1943225;74;21027;-51
2021/07/11 02:58:00;;;;;;;14.18;8.38;;;24.00;67.50;;;;;;1943016;74;21015;-52
2021/07/11 03:00:30;;;;;;;14.25;7.72;;;24.00;67.10;;;;;;1942990;73;21510;-49
2021/07/11 03:03:00;;;;;;;14.95;9.58;;;24.00;67.20;;;;;;1942867;73;21085;-49
2021/07/11 03:05:31;;;;;;;17.42;9.93;;;24.00;67.20;;;;;;1941441;74;21161;-51
2021/07/11 03:08:02;;;;;;;14.95;9.23;;;24.00;67.30;;;;;;1943080;74;21077;-48
2021/07/11 03:10:32;;;;;;;15.35;9.65;;;24.10;67.30;;;;;;1943024;74;21085;-51
2021/07/11 03:13:03;;;;;;;25.25;9.40;;;24.10;67.70;;;;;;1943240;74;20987;-51
2021/07/11 03:15:34;;;;;;;15.90;10.63;;;24.10;67.20;;;;;;1943106;74;21094;-51
2021/07/11 03:18:05;;;;;;;14.23;9.73;;;24.20;67.00;;;;;;1943389;74;21090;-51
2021/07/11 03:20:36;;;;;;;13.90;8.68;;;24.30;67.00;;;;;;1943215;74;21108;-53
2021/07/11 03:23:06;;;;;;;16.42;8.13;;;24.30;66.50;;;;;;1943021;74;21076;-51
2021/07/11 03:25:37;;;;;;;20.50;9.90;;;24.40;65.80;;;;;;1943019;74;21027;-49
2021/07/11 03:28:07;;;;;;;17.00;8.55;;;24.50;65.30;;;;;;1943110;74;20991;-48
2021/07/11 03:30:39;;;;;;;21.37;8.45;;;24.60;64.60;;;;;;1942938;74;21088;-51
2021/07/11 03:33:09;;;;;;;18.02;8.20;;;24.60;64.10;;;;;;1943075;74;21022;-51
2021/07/11 03:35:41;;;;;;;11.70;7.85;;;24.70;64.10;;;;;;1943252;74;21144;-52
2021/07/11 03:38:13;;;;;;;26.90;10.23;;;24.70;63.90;;;;;;1942941;74;21090;-52
2021/07/11 03:40:45;;;;;;;15.40;9.00;;;24.80;63.90;;;;;;1942998;74;21508;-49
2021/07/11 03:43:18;;;;;;;15.40;8.00;;;24.80;63.70;;;;;;1943166;74;21042;-51
2021/07/11 03:45:49;;;;;;;17.52;8.43;;;24.80;63.60;;;;;;1943094;74;21023;-49
2021/07/11 03:48:23;;;;;;;14.25;8.85;;;24.90;63.40;;;;;;1943101;74;21027;-52
2021/07/11 03:50:55;;;;;;;16.67;8.90;;;24.90;62.70;;;;;;1943201;74;21043;-51
2021/07/11 03:53:27;;;;;;;15.03;8.83;;;24.90;62.60;;;;;;1943207;74;21125;-52
2021/07/11 03:55:58;;;;;;;20.20;9.23;;;24.90;62.60;;;;;;1943005;74;21504;-52
2021/07/11 03:58:30;;;;;;;14.85;9.23;;;24.90;62.20;;;;;;1943154;74;21027;-51
2021/07/11 04:01:00;;;;;;;21.95;9.48;;;24.80;62.40;;;;;;1943079;74;21022;-51
2021/07/11 04:03:31;;;;;;;14.80;9.50;;;24.80;62.10;;;;;;1943017;74;21027;-50
2021/07/11 04:06:03;;;;;;;22.27;9.10;;;24.90;61.70;;;;;;1942987;74;21054;-49
2021/07/11 04:08:34;;;;;;;18.32;9.53;;;24.90;61.70;;;;;;1943214;74;21019;-51
2021/07/11 04:11:04;;;;;;;16.65;8.90;;;24.90;61.70;;;;;;1943005;74;21042;-51
2021/07/11 04:13:34;;;;;;;28.87;9.08;;;24.90;61.20;;;;;;1943037;74;21015;-49
2021/07/11 04:16:06;;;;;;;27.77;10.43;;;24.90;60.90;;;;;;1943074;73;21070;-52
2021/07/11 04:18:38;;;;;;;21.77;9.38;;;25.00;60.60;;;;;;1942916;74;21027;-51
2021/07/11 04:21:09;;;;;;;17.12;9.60;;;25.10;60.80;;;;;;1942826;74;21081;-51
2021/07/11 04:23:39;;;;;;;17.37;8.45;;;25.10;61.00;;;;;;1943053;74;21042;-52
2021/07/11 04:26:09;;;;;;;13.13;9.78;;;25.30;61.50;;;;;;1943153;74;21015;-49
2021/07/11 04:28:42;;;;;;;22.10;9.88;;;25.40;60.80;;;;;;1942984;74;21039;-51
2021/07/11 04:31:12;;;;;;;22.30;9.83;;;25.50;61.10;;;;;;1943104;74;21018;-53
2021/07/11 04:33:41;;;;;;;16.10;8.95;;;25.60;60.60;;;;;;1943010;74;20998;-52
2021/07/11 04:36:11;;;;;;;25.77;10.93;;;25.60;60.40;;;;;;1942887;74;21104;-52
2021/07/11 04:38:40;;;;;;;15.98;9.33;;;25.70;60.30;;;;;;1942918;74;21076;-52
2021/07/11 04:41:10;;;;;;;37.15;10.43;;;25.70;60.20;;;;;;1943175;74;21097;-53
2021/07/11 04:43:40;;;;;;;21.55;10.35;;;25.80;60.20;;;;;;1943032;74;21029;-50
2021/07/11 04:46:09;;;;;;;19.67;9.95;;;25.80;60.00;;;;;;1943102;74;21022;-50
2021/07/11 04:48:39;;;;;;;21.37;11.35;;;25.90;60.20;;;;;;1943051;74;21081;-52
2021/07/11 04:51:08;;;;;;;29.50;11.80;;;26.00;59.90;;;;;;1942987;74;21081;-53
2021/07/11 04:53:37;;;;;;;19.90;11.73;;;26.10;59.60;;;;;;1943180;73;21142;-52
2021/07/11 04:56:07;;;;;;;25.82;12.85;;;26.20;59.50;;;;;;1942974;74;21027;-49
2021/07/11 04:58:36;;;;;;;23.25;11.43;;;26.30;59.30;;;;;;1943122;73;21092;-52
2021/07/11 05:01:05;;;;;;;27.40;11.95;;;26.40;58.90;;;;;;1943047;73;21147;-50
2021/07/11 05:03:35;;;;;;;31.55;12.10;;;26.50;58.90;;;;;;1942944;74;21035;-50
2021/07/11 05:06:04;;;;;;;22.45;11.50;;;26.60;58.20;;;;;;1941244;74;21051;-49
2021/07/11 05:08:34;;;;;;;22.85;11.63;;;26.60;58.20;;;;;;1935591;74;21067;-51
2021/07/11 05:11:03;;;;;;;21.02;12.00;;;26.70;58.10;;;;;;1935574;74;21000;-50
2021/07/11 05:13:33;;;;;;;32.48;15.20;;;26.80;57.90;;;;;;1935561;74;21081;-51
2021/07/11 05:16:03;;;;;;;23.77;12.58;;;26.90;57.90;;;;;;1935598;74;21019;-49
2021/07/11 05:18:32;;;;;;;24.72;12.90;;;27.00;57.70;;;;;;1935701;74;21097;-49
2021/07/11 05:21:02;;;;;;;24.20;13.15;;;27.10;57.80;;;;;;1935542;74;21023;-52
2021/07/11 05:23:32;;;;;;;26.10;11.15;;;27.20;57.70;;;;;;1935589;74;21023;-51
2021/07/11 05:26:01;;;;;;;29.65;13.00;;;27.20;57.40;;;;;;1935670;74;21075;-51
2021/07/11 05:28:31;;;;;;;27.22;13.38;;;27.30;57.10;;;;;;1935631;74;21012;-52
2021/07/11 05:31:00;;;;;;;33.10;14.43;;;27.30;56.60;;;;;;1935523;74;21027;-52
2021/07/11 05:33:29;;;;;;;20.88;13.43;;;27.40;56.60;;;;;;1935738;74;21015;-51
2021/07/11 05:35:59;;;;;;;27.20;13.48;;;27.40;56.50;;;;;;1935546;74;21043;-52
2021/07/11 05:38:29;;;;;;;30.95;16.60;;;27.50;56.60;;;;;;1935620;74;21019;-51
2021/07/11 05:40:58;;;;;;;36.20;14.53;;;27.60;56.60;;;;;;1935619;74;21101;-52
2021/07/11 05:43:27;;;;;;;31.33;14.25;;;27.70;56.30;;;;;;1935522;74;21081;-51
2021/07/11 05:45:56;;;;;;;29.72;16.12;;;27.70;56.00;;;;;;1935596;74;21011;-52
2021/07/11 05:48:26;;;;;;;26.68;13.38;;;27.80;56.20;;;;;;1935594;74;21445;-51
2021/07/11 05:50:56;;;;;;;29.77;12.75;;;27.80;55.70;;;;;;1935730;74;21019;-52
2021/07/11 05:53:25;;;;;;;27.15;12.78;;;27.80;55.10;;;;;;1935726;74;21062;-49
2021/07/11 05:55:55;;;;;;;20.68;11.05;;;27.90;55.40;;;;;;1935771;74;21054;-51
2021/07/11 05:58:24;;;;;;;25.15;11.40;;;28.00;54.40;;;;;;1935606;74;21035;-49
2021/07/11 06:00:53;;;;;;;21.62;11.45;;;28.00;53.80;;;;;;1935550;74;21529;-52
2021/07/11 06:03:23;;;;;;;31.30;13.25;;;28.00;53.90;;;;;;1935524;74;21027;-52
2021/07/11 06:05:52;;;;;;;24.10;12.30;;;28.10;54.20;;;;;;1935649;74;21023;-49
2021/07/11 06:08:21;;;;;;;29.10;13.15;;;28.20;54.50;;;;;;1935483;73;21059;-52
2021/07/11 06:10:53;;;;;;;23.80;13.13;;;28.20;54.40;;;;;;1935539;74;21077;-52
2021/07/11 06:13:22;;;;;;;23.10;13.60;;;28.20;54.40;;;;;;1935513;74;21458;-52
2021/07/11 06:15:51;;;;;;;23.27;11.50;;;28.30;54.40;;;;;;1935644;74;21031;-52
2021/07/11 06:18:21;;;;;;;18.73;10.23;;;28.40;55.00;;;;;;1935651;74;21077;-51
2021/07/11 06:20:50;;;;;;;18.92;10.45;;;28.50;54.00;;;;;;1935446;74;20996;-50
2021/07/11 06:23:19;;;;;;;19.95;10.95;;;28.60;53.20;;;;;;1935544;74;21011;-52
2021/07/11 06:25:49;;;;;;;73.62;31.07;;;28.70;53.00;;;;;;1935450;74;21096;-51
2021/07/11 06:28:18;;;;;;;30.92;16.77;;;28.80;52.90;;;;;;1935533;74;21039;-52
2021/07/11 06:30:48;;;;;;;14.55;9.90;;;29.00;52.70;;;;;;1935436;74;21031;-51
2021/07/11 06:33:17;;;;;;;15.45;9.10;;;29.00;51.80;;;;;;1935403;74;21528;-52
2021/07/11 06:35:46;;;;;;;20.90;10.68;;;29.10;51.30;;;;;;1935352;74;21031;-52
2021/07/11 06:38:16;;;;;;;18.37;9.50;;;29.10;50.70;;;;;;1935521;74;21496;-53
2021/07/11 06:40:45;;;;;;;17.17;10.08;;;29.10;50.20;;;;;;1935309;74;21136;-50
2021/07/11 06:43:14;;;;;;;13.32;10.35;;;29.10;50.20;;;;;;1935599;74;21168;-50
2021/07/11 06:45:44;;;;;;;22.82;10.40;;;29.20;50.90;;;;;;1935363;74;21039;-51
2021/07/11 06:48:13;;;;;;;15.03;9.33;;;29.20;50.90;;;;;;1935344;74;21089;-49
2021/07/11 06:50:43;;;;;;;13.58;8.48;;;29.30;49.60;;;;;;1935248;74;21030;-51
2021/07/11 06:53:12;;;;;;;13.95;8.95;;;29.40;48.70;;;;;;1935617;74;21027;-52
2021/07/11 06:55:42;;;;;;;20.40;9.48;;;29.40;47.80;;;;;;1935467;74;21106;-52
2021/07/11 06:58:11;;;;;;;12.68;8.88;;;29.40;47.40;;;;;;1935469;74;21183;-52
2021/07/11 07:00:41;;;;;;;12.95;8.45;;;29.40;47.60;;;;;;1935429;74;20995;-52
2021/07/11 07:03:10;;;;;;;11.70;9.30;;;29.40;47.30;;;;;;1935428;74;21027;-52
2021/07/11 07:05:40;;;;;;;22.10;9.25;;;29.40;47.00;;;;;;1935375;74;21063;-52
2021/07/11 07:08:09;;;;;;;16.25;8.60;;;29.50;47.70;;;;;;1935482;73;21117;-52
2021/07/11 07:10:39;;;;;;;19.12;9.70;;;29.50;46.90;;;;;;1935352;74;20992;-52
2021/07/11 07:13:08;;;;;;;16.17;9.33;;;29.60;47.40;;;;;;1935514;74;21027;-49
2021/07/11 07:15:38;;;;;;;22.52;9.90;;;29.80;47.70;;;;;;1935583;74;21015;-51
2021/07/11 07:18:08;;;;;;;13.58;9.65;;;29.80;47.30;;;;;;1935600;74;21054;-53
2021/07/11 07:20:38;;;;;;;14.03;8.90;;;29.90;47.50;;;;;;1935653;74;21077;-51
2021/07/11 07:23:07;;;;;;;31.07;9.85;;;30.00;47.90;;;;;;1935655;74;21083;-49
2021/07/11 07:25:37;;;;;;;15.30;9.13;;;30.00;47.80;;;;;;1935437;74;21129;-52
2021/07/11 07:28:10;;;;;;;12.05;9.20;;;30.00;48.20;;;;;;1935503;74;21023;-52
2021/07/11 07:30:37;;;;;;;14.75;8.90;;;29.90;48.00;;;;;;1935058;74;21473;-50
2021/07/11 07:33:06;;;;;;;16.00;10.95;;;29.90;48.40;;;;;;1935394;74;21046;-51
2021/07/11 07:35:36;;;;;;;12.80;8.63;;;29.90;48.90;;;;;;1935740;74;21085;-52
2021/07/11 07:38:07;;;;;;;11.93;9.25;;;30.00;49.00;;;;;;1935506;74;21102;-51
2021/07/11 07:40:36;;;;;;;14.07;9.23;;;30.10;48.30;;;;;;1935641;74;21092;-51
2021/07/11 07:43:06;;;;;;;10.82;9.23;;;30.20;47.70;;;;;;1935511;74;21213;-52
2021/07/11 07:45:36;;;;;;;14.85;8.88;;;30.30;47.70;;;;;;1935502;74;21128;-53
2021/07/11 07:48:05;;;;;;;20.52;8.63;;;30.40;46.40;;;;;;1935652;74;21132;-51
2021/07/11 07:50:35;;;;;;;14.65;8.88;;;30.50;45.40;;;;;;1935502;74;21148;-52
2021/07/11 07:53:05;;;;;;;14.55;9.95;;;30.60;44.80;;;;;;1935572;74;21015;-52
2021/07/11 07:55:35;;;;;;;14.78;9.63;;;30.60;44.70;;;;;;1935515;74;20991;-52
2021/07/11 07:58:04;;;;;;;16.30;10.08;;;30.70;44.40;;;;;;1935736;74;21069;-52
2021/07/11 08:00:34;;;;;;;20.50;9.98;;;30.80;43.50;;;;;;1935549;74;21023;-51
2021/07/11 08:03:03;;;;;;;13.95;9.28;;;30.80;43.50;;;;;;1935503;74;21027;-50
2021/07/11 08:05:33;;;;;;;14.30;9.98;;;30.80;43.30;;;;;;1935397;74;21106;-52
2021/07/11 08:08:03;;;;;;;18.57;10.43;;;31.00;42.70;;;;;;1938653;74;21031;-52
2021/07/11 08:10:33;;;;;;;13.53;8.78;;;31.00;42.30;;;;;;1948540;74;21039;-52
2021/07/11 08:13:03;;;;;;;11.88;9.03;;;31.00;42.50;;;;;;1948564;74;21023;-52
2021/07/11 08:15:33;;;;;;;12.40;9.43;;;31.00;42.30;;;;;;1948516;73;21022;-52
2021/07/11 08:18:02;;;;;;;12.60;8.95;;;31.10;42.50;;;;;;1948644;74;20996;-52
2021/07/11 08:20:32;;;;;;;12.03;8.95;;;31.10;42.70;;;;;;1948670;74;21106;-52
2021/07/11 08:23:01;;;;;;;19.10;10.05;;;31.20;42.90;;;;;;1948593;74;20995;-53
2021/07/11 08:25:30;;;;;;;12.20;8.88;;;31.30;42.80;;;;;;1948502;74;21019;-52
2021/07/11 08:28:00;;;;;;;12.68;9.25;;;31.40;42.70;;;;;;1948659;74;20999;-49
2021/07/11 08:30:29;;;;;;;15.75;9.28;;;31.40;42.80;;;;;;1948500;74;21096;-52
2021/07/11 08:32:59;;;;;;;15.43;10.00;;;31.40;42.80;;;;;;1948534;74;21022;-53
2021/07/11 08:35:28;;;;;;;22.40;10.93;;;31.50;42.80;;;;;;1948473;74;21092;-53
2021/07/11 08:37:57;;;;;;;16.42;10.00;;;31.60;43.40;;;;;;1948605;74;21023;-52
2021/07/11 08:40:27;;;;;;;10.80;8.78;;;31.70;42.90;;;;;;1948482;74;21003;-53
2021/07/11 08:42:56;;;;;;;12.68;8.60;;;31.70;42.30;;;;;;1948503;73;22275;-53
2021/07/11 08:45:25;;;;;;;14.05;9.15;;;31.60;42.30;;;;;;1948751;74;21030;-52
2021/07/11 08:47:55;;;;;;;12.53;8.65;;;31.60;42.80;;;;;;1948677;74;21038;-52
2021/07/11 08:50:25;;;;;;;11.68;8.60;;;31.60;42.30;;;;;;1948519;74;21026;-52
2021/07/11 08:52:56;;;;;;;13.45;7.60;;;31.60;42.00;;;;;;1948551;73;21081;-51
2021/07/11 08:55:27;;;;;;;15.45;9.60;;;31.60;41.10;;;;;;1948606;74;21074;-51
2021/07/11 08:58:01;;;;;;;21.50;10.45;;;31.50;40.50;;;;;;1948506;73;21028;-51
2021/07/11 09:00:36;;;;;;;16.75;11.15;;;31.50;40.40;;;;;;1948724;74;21018;-52
2021/07/11 09:03:07;;;;;;;18.35;12.60;;;31.50;39.80;;;;;;1948484;73;21332;-52
2021/07/11 09:05:41;;;;;;;14.90;9.15;;;31.50;40.40;;;;;;1948450;74;21066;-52
2021/07/11 09:08:14;;;;;;;;;;;31.60;40.30;;;;;;1951372;74;21022;-53
2021/07/11 09:10:49;;;;;;;11.15;8.25;;;31.70;38.40;;;;;;1948606;74;20088;-52
2021/07/11 09:13:21;;;;;;;12.07;8.25;;;31.80;39.60;;;;;;1948712;74;21015;-52
2021/07/11 09:15:53;;;;;;;14.07;8.65;;;31.80;39.40;;;;;;1947701;74;21538;-52
2021/07/11 09:18:27;;;;;;;9.68;7.47;;;31.80;39.30;;;;;;1948668;74;21007;-52
2021/07/11 09:21:02;;;;;;;12.37;8.45;;;31.90;39.00;;;;;;1948598;74;21011;-51
2021/07/11 09:23:32;;;;;;;10.88;7.25;;;31.90;39.20;;;;;;1948585;74;21088;-52
2021/07/11 09:26:06;;;;;;;12.30;8.33;;;32.00;39.60;;;;;;1948527;74;21023;-52
2021/07/11 09:28:37;;;;;;;15.78;8.13;;;32.10;39.30;;;;;;1948787;74;21025;-51
2021/07/11 09:31:12;;;;;;;11.50;8.28;;;32.10;38.70;;;;;;1948329;74;21164;-53
2021/07/11 09:33:44;;;;;;;14.47;8.88;;;32.10;38.50;;;;;;1948677;74;21018;-52
2021/07/11 09:36:21;;;;;;;8.93;7.55;;;32.10;38.80;;;;;;1948634;74;21078;-52
2021/07/11 09:38:53;;;;;;;10.48;7.42;;;32.20;38.10;;;;;;1948586;74;21097;-53
2021/07/11 09:41:25;;;;;;;9.20;6.70;;;32.20;37.80;;;;;;1948654;74;21026;-52
2021/07/11 09:43:59;;;;;;;13.03;7.55;;;32.20;37.30;;;;;;1948703;74;21116;-53
2021/07/11 09:46:36;;;;;;;12.73;6.97;;;32.20;38.10;;;;;;1948657;74;21039;-52
2021/07/11 09:49:07;;;;;;;13.00;7.87;;;32.30;38.40;;;;;;1948674;73;21096;-52
2021/07/11 09:51:36;;;;;;;8.73;7.00;;;32.30;38.50;;;;;;1946662;74;21127;-52
2021/07/11 09:54:10;;;;;;;9.63;6.87;;;32.40;38.40;;;;;;1948623;73;21022;-52
2021/07/11 09:56:47;;;;;;;13.45;9.75;;;32.50;38.30;;;;;;1948793;74;20991;-51
2021/07/11 09:59:18;;;;;;;13.45;7.90;;;32.60;38.10;;;;;;1948800;73;21035;-52
2021/07/11 10:01:47;;;;;;;11.20;7.60;;;32.70;38.10;;;;;;1948838;74;20999;-52
2021/07/11 10:04:17;;;;;;;14.05;7.25;;;32.80;37.70;;;;;;1948966;74;21022;-51
2021/07/11 10:06:46;;;;;;;15.32;7.87;;;32.80;36.80;;;;;;1948931;73;21058;-49
2021/07/11 10:09:16;;;;;;;16.77;7.25;;;32.90;36.90;;;;;;1948297;73;21054;-50
2021/07/11 10:11:46;;;;;;;8.65;6.72;;;32.90;36.20;;;;;;1948141;74;21088;-51
2021/07/11 10:14:15;;;;;;;10.03;6.85;;;33.00;36.30;;;;;;1947930;74;20998;-51
2021/07/11 10:16:46;;;;;;;11.05;6.37;;;33.00;36.00;;;;;;1947974;74;21125;-51
2021/07/11 10:19:15;;;;;;;11.00;6.92;;;32.90;35.70;;;;;;1947935;74;20999;-52
2021/07/11 10:21:47;;;;;;;9.93;7.30;;;32.80;35.80;;;;;;1948080;74;20999;-51
2021/07/11 10:24:21;;;;;;;12.15;7.50;;;32.80;36.30;;;;;;1948106;74;21081;-51
2021/07/11 10:26:51;;;;;;;19.10;7.90;;;32.80;35.90;;;;;;1947905;74;21112;-49
2021/07/11 10:29:23;;;;;;;15.88;7.78;;;32.80;35.80;;;;;;1947968;74;21092;-52
2021/07/11 10:31:55;;;;;;;10.98;7.92;;;32.80;35.70;;;;;;1948017;74;21139;-52
2021/07/11 10:34:30;;;;;;;8.25;7.10;;;32.80;36.10;;;;;;1947999;74;21022;-51
2021/07/11 10:37:01;;;;;;;15.13;7.95;;;32.90;35.40;;;;;;1948048;74;21089;-51
2021/07/11 10:39:36;;;;;;;22.30;7.45;;;32.80;34.90;;;;;;1945813;74;21426;-52
2021/07/11 10:42:06;;;;;;;10.80;7.35;;;32.90;35.60;;;;;;1948075;74;21022;-51
2021/07/11 10:44:35;;;;;;;13.28;8.05;;;32.90;35.10;;;;;;1948066;74;20995;-51
2021/07/11 10:47:05;;;;;;;9.88;7.15;;;32.90;35.20;;;;;;1948020;74;21083;-52
2021/07/11 10:49:40;;;;;;;32.30;8.43;;;32.90;35.30;;;;;;1948044;74;21026;-51
2021/07/11 10:52:10;;;;;;;16.57;8.40;;;33.00;35.60;;;;;;1943896;74;21504;-50
2021/07/11 10:54:51;;;;;;;11.22;7.80;;;33.00;35.50;;;;;;1948176;73;21091;-52
2021/07/11 10:57:38;;;;;;;17.23;9.23;;;33.10;35.40;;;;;;1948145;74;21051;-50
2021/07/11 11:00:21;;;;;;;13.55;8.25;;;33.20;35.70;;;;;;1948052;74;21022;-52
2021/07/11 11:02:52;;;;;;;14.00;9.40;;;33.30;35.20;;;;;;1946832;73;21038;-52
2021/07/11 11:05:24;;;;;;;13.80;10.00;;;33.20;34.80;;;;;;1947963;74;21094;-52
2021/07/11 11:07:56;;;;;;;12.65;10.40;;;33.20;34.90;;;;;;1948053;73;21085;-52
2021/07/11 11:10:36;;;;;;;14.65;10.72;;;33.20;34.60;;;;;;1944308;73;21508;-52
2021/07/11 11:13:20;;;;;;;17.10;11.45;;;33.20;34.80;;;;;;1941547;73;21570;-53
2021/07/11 11:15:52;;;;;;;22.05;11.85;;;33.20;34.60;;;;;;1941803;73;21014;-53
2021/07/11 11:18:38;;;;;;;20.12;11.73;;;33.20;34.50;;;;;;1941949;73;21085;-52
2021/07/11 11:21:09;;;;;;;16.10;11.88;;;33.30;34.40;;;;;;1941493;73;21078;-53
2021/07/11 11:23:43;;;;;;;18.52;12.75;;;33.30;34.40;;;;;;1935881;74;21519;-52
2021/07/11 11:26:21;;;;;;;16.30;12.65;;;33.30;34.20;;;;;;1935668;74;20996;-53
2021/07/11 11:28:52;;;;;;;19.07;14.15;;;33.30;34.40;;;;;;1935653;74;21164;-53
2021/07/11 11:31:30;;;;;;;22.10;14.40;;;33.30;34.50;;;;;;1935594;74;21088;-53
2021/07/11 11:34:10;;;;;;;19.87;16.20;;;33.30;34.40;;;;;;1935542;74;21457;-52
2021/07/11 11:36:44;;;;;;;19.85;14.00;;;33.30;35.10;;;;;;1935582;74;21037;-52
2021/07/11 11:39:24;;;;;;;19.40;13.80;;;33.30;35.10;;;;;;1935557;74;21148;-53
2021/07/11 11:41:53;;;;;;;21.12;13.95;;;33.40;35.00;;;;;;1935485;74;21031;-52
2021/07/11 11:44:25;;;;;;;16.12;13.40;;;33.40;34.80;;;;;;1935548;74;21162;-52
2021/07/11 11:46:56;;;;;;;19.45;14.35;;;33.40;35.00;;;;;;1935525;74;21088;-53
2021/07/11 11:49:28;;;;;;;27.55;14.75;;;33.30;35.30;;;;;;1935472;74;21031;-52
2021/07/11 11:51:59;;;;;;;19.37;14.38;;;33.30;35.60;;;;;;1935597;74;21035;-53
2021/07/11 11:54:30;;;;;;;20.43;14.95;;;33.40;36.10;;;;;;1935628;74;21023;-53
2021/07/11 11:56:59;;;;;;;19.57;13.85;;;33.50;35.50;;;;;;1935496;74;20995;-54
2021/07/11 11:59:30;;;;;;;21.77;15.05;;;33.50;35.40;;;;;;1935660;74;21051;-54
2021/07/11 12:02:02;;;;;;;17.90;14.30;;;33.60;35.40;;;;;;1935666;74;21016;-53
2021/07/11 12:04:32;;;;;;;16.05;11.70;;;33.70;35.80;;;;;;1933996;74;21084;-53
2021/07/11 12:07:03;;;;;;;21.93;13.08;;;33.70;36.10;;;;;;1935508;74;21023;-53
2021/07/11 12:09:33;;;;;;;19.40;12.50;;;33.60;36.40;;;;;;1935501;74;21081;-52
2021/07/11 12:12:09;;;;;;;16.62;12.05;;;33.60;36.60;;;;;;1936237;74;21051;-52
2021/07/11 12:14:40;;;;;;;16.00;11.78;;;33.70;37.20;;;;;;1932630;73;21083;-51
2021/07/11 12:17:18;;;;;;;14.55;10.93;;;33.80;37.70;;;;;;1922959;74;21113;-50
2021/07/11 12:19:52;;;;;;;21.85;12.45;;;33.80;37.50;;;;;;1922954;74;21024;-52
2021/07/11 12:22:26;;;;;;;13.72;10.85;;;33.90;37.50;;;;;;1923045;74;21016;-52
2021/07/11 12:25:17;;;;;;;15.48;11.05;;;33.90;37.80;;;;;;1922994;74;20988;-51
2021/07/11 12:27:46;;;;;;;16.60;11.65;;;34.00;38.20;;;;;;1922180;74;21047;-51
2021/07/11 12:30:20;;;;;;;16.35;11.95;;;34.00;38.30;;;;;;1922916;74;21498;-50
2021/07/11 12:32:51;;;;;;;14.35;11.12;;;34.00;38.30;;;;;;1922770;74;21093;-50
2021/07/11 12:35:26;;;;;;;19.35;12.45;;;34.00;38.60;;;;;;1923015;74;21544;-50
2021/07/11 12:37:59;;;;;;;13.25;10.90;;;34.10;38.60;;;;;;1922970;74;21027;-49
2021/07/11 12:40:32;;;;;;;13.88;10.98;;;34.10;38.70;;;;;;1923161;74;20991;-51
2021/07/11 12:43:28;;;;;;;13.50;10.32;;;34.10;38.80;;;;;;1923036;74;21032;-51
2021/07/11 12:46:03;;;;;;;14.85;11.63;;;34.20;39.00;;;;;;1921392;74;21036;-53
2021/07/11 12:48:41;;;;;;;17.60;11.38;;;34.10;39.30;;;;;;1923198;74;21152;-51
2021/07/11 12:51:37;;;;;;;14.70;10.85;;;34.10;39.50;;;;;;1922956;74;20995;-52
2021/07/11 12:54:17;;;;;;;15.38;10.98;;;34.10;39.00;;;;;;1923089;74;21435;-50